sensor_id;sensor_type;location;lat;lon;timestamp;P1;durP1;ratioP1;P2;durP2;ratioP2
45274;SDS011;31019;43.780;25.948;2023-01-19T00:00:12;78.10;;;71.38;;
45274;SDS011;31019;43.780;25.948;2023-01-19T00:02:40;72.30;;;66.18;;
45274;SDS011;31019;43.780;25.948;2023-01-19T00:05:11;78.82;;;71.68;;
45274;SDS011;31019;43.780;25.948;2023-01-19T00:07:38;73.68;;;67.57;;
45274;SDS011;31019;43.780;25.948;2023-01-19T00:10:06;79.03;;;71.57;;
45274;SDS011;31019;43.780;25.948;2023-01-19T00:12:33;76.55;;;70.03;;
45274;SDS011;31019;43.780;25.948;2023-01-19T00:15:00;74.20;;;67.78;;
45274;SDS011;31019;43.780;25.948;2023-01-19T00:17:27;79.22;;;72.13;;
45274;SDS011;31019;43.780;25.948;2023-01-19T00:19:55;76.18;;;69.45;;
45274;SDS011;31019;43.780;25.948;2023-01-19T00:22:21;82.72;;;74.50;;
45274;SDS011;31019;43.780;25.948;2023-01-19T00:24:48;72.90;;;66.45;;
45274;SDS011;31019;43.780;25.948;2023-01-19T00:27:15;80.63;;;72.97;;
45274;SDS011;31019;43.780;25.948;2023-01-19T00:29:42;77.25;;;69.28;;
45274;SDS011;31019;43.780;25.948;2023-01-19T00:32:09;88.60;;;80.63;;
45274;SDS011;31019;43.780;25.948;2023-01-19T00:34:35;91.28;;;83.97;;
45274;SDS011;31019;43.780;25.948;2023-01-19T00:37:05;79.85;;;73.18;;
45274;SDS011;31019;43.780;25.948;2023-01-19T00:39:32;78.18;;;71.40;;
45274;SDS011;31019;43.780;25.948;2023-01-19T00:41:58;92.28;;;84.60;;
45274;SDS011;31019;43.780;25.948;2023-01-19T00:44:42;80.00;;;73.20;;
45274;SDS011;31019;43.780;25.948;2023-01-19T00:47:09;74.53;;;67.40;;
45274;SDS011;31019;43.780;25.948;2023-01-19T00:49:36;79.60;;;73.10;;
45274;SDS011;31019;43.780;25.948;2023-01-19T00:52:04;78.90;;;72.07;;
45274;SDS011;31019;43.780;25.948;2023-01-19T00:54:31;69.57;;;62.80;;
45274;SDS011;31019;43.780;25.948;2023-01-19T00:56:58;78.30;;;71.60;;
45274;SDS011;31019;43.780;25.948;2023-01-19T00:59:25;82.15;;;74.18;;
45274;SDS011;31019;43.780;25.948;2023-01-19T01:01:52;78.22;;;70.70;;
45274;SDS011;31019;43.780;25.948;2023-01-19T01:04:18;75.63;;;67.45;;
45274;SDS011;31019;43.780;25.948;2023-01-19T01:06:45;82.13;;;74.43;;
45274;SDS011;31019;43.780;25.948;2023-01-19T01:09:13;71.38;;;65.20;;
45274;SDS011;31019;43.780;25.948;2023-01-19T01:11:40;73.88;;;66.75;;
45274;SDS011;31019;43.780;25.948;2023-01-19T01:14:08;76.97;;;71.00;;
45274;SDS011;31019;43.780;25.948;2023-01-19T01:16:35;74.68;;;67.95;;
45274;SDS011;31019;43.780;25.948;2023-01-19T01:19:02;71.20;;;64.32;;
45274;SDS011;31019;43.780;25.948;2023-01-19T01:21:28;64.78;;;59.38;;
45274;SDS011;31019;43.780;25.948;2023-01-19T01:23:55;88.32;;;81.03;;
45274;SDS011;31019;43.780;25.948;2023-01-19T01:26:23;79.20;;;71.13;;
45274;SDS011;31019;43.780;25.948;2023-01-19T01:28:50;98.40;;;89.68;;
45274;SDS011;31019;43.780;25.948;2023-01-19T01:31:17;81.75;;;73.90;;
45274;SDS011;31019;43.780;25.948;2023-01-19T01:33:43;76.97;;;69.57;;
45274;SDS011;31019;43.780;25.948;2023-01-19T01:36:10;79.35;;;71.85;;
45274;SDS011;31019;43.780;25.948;2023-01-19T01:38:37;76.20;;;69.65;;
45274;SDS011;31019;43.780;25.948;2023-01-19T01:41:04;75.78;;;69.15;;
45274;SDS011;31019;43.780;25.948;2023-01-19T01:43:42;69.07;;;63.40;;
45274;SDS011;31019;43.780;25.948;2023-01-19T01:46:10;73.13;;;66.43;;
45274;SDS011;31019;43.780;25.948;2023-01-19T01:48:39;77.38;;;70.85;;
45274;SDS011;31019;43.780;25.948;2023-01-19T01:51:10;72.13;;;65.90;;
45274;SDS011;31019;43.780;25.948;2023-01-19T01:53:50;78.50;;;72.05;;
45274;SDS011;31019;43.780;25.948;2023-01-19T01:56:23;78.25;;;72.03;;
45274;SDS011;31019;43.780;25.948;2023-01-19T01:58:55;68.13;;;62.33;;
45274;SDS011;31019;43.780;25.948;2023-01-19T02:01:23;79.18;;;72.55;;
45274;SDS011;31019;43.780;25.948;2023-01-19T02:04:07;85.18;;;78.20;;
45274;SDS011;31019;43.780;25.948;2023-01-19T02:06:34;87.35;;;80.13;;
45274;SDS011;31019;43.780;25.948;2023-01-19T02:09:18;77.72;;;71.05;;
45274;SDS011;31019;43.780;25.948;2023-01-19T02:12:03;78.40;;;71.75;;
45274;SDS011;31019;43.780;25.948;2023-01-19T02:14:49;74.18;;;67.55;;
45274;SDS011;31019;43.780;25.948;2023-01-19T02:17:16;81.35;;;74.75;;
45274;SDS011;31019;43.780;25.948;2023-01-19T02:19:43;70.68;;;64.75;;
45274;SDS011;31019;43.780;25.948;2023-01-19T02:22:11;80.18;;;73.20;;
45274;SDS011;31019;43.780;25.948;2023-01-19T02:24:44;80.43;;;73.88;;
45274;SDS011;31019;43.780;25.948;2023-01-19T02:27:11;68.75;;;63.10;;
45274;SDS011;31019;43.780;25.948;2023-01-19T02:29:40;73.90;;;68.47;;
45274;SDS011;31019;43.780;25.948;2023-01-19T02:32:07;76.10;;;69.80;;
45274;SDS011;31019;43.780;25.948;2023-01-19T02:34:34;74.90;;;68.18;;
45274;SDS011;31019;43.780;25.948;2023-01-19T02:37:01;76.50;;;70.65;;
45274;SDS011;31019;43.780;25.948;2023-01-19T02:39:32;76.72;;;70.32;;
45274;SDS011;31019;43.780;25.948;2023-01-19T02:42:05;82.28;;;75.43;;
45274;SDS011;31019;43.780;25.948;2023-01-19T02:44:35;70.85;;;65.30;;
45274;SDS011;31019;43.780;25.948;2023-01-19T02:47:03;80.60;;;74.20;;
45274;SDS011;31019;43.780;25.948;2023-01-19T02:49:30;72.45;;;66.72;;
45274;SDS011;31019;43.780;25.948;2023-01-19T02:51:57;69.55;;;63.97;;
45274;SDS011;31019;43.780;25.948;2023-01-19T02:54:27;71.55;;;65.90;;
45274;SDS011;31019;43.780;25.948;2023-01-19T03:00:13;67.05;;;61.65;;
45274;SDS011;31019;43.780;25.948;2023-01-19T03:02:49;78.70;;;72.10;;
45274;SDS011;31019;43.780;25.948;2023-01-19T03:05:29;72.82;;;67.18;;
45274;SDS011;31019;43.780;25.948;2023-01-19T03:08:05;72.55;;;66.80;;
45274;SDS011;31019;43.780;25.948;2023-01-19T03:10:41;79.00;;;72.97;;
45274;SDS011;31019;43.780;25.948;2023-01-19T03:13:18;67.75;;;62.28;;
45274;SDS011;31019;43.780;25.948;2023-01-19T03:15:53;70.10;;;63.60;;
45274;SDS011;31019;43.780;25.948;2023-01-19T03:18:24;75.45;;;69.50;;
45274;SDS011;31019;43.780;25.948;2023-01-19T03:20:55;74.03;;;68.05;;
45274;SDS011;31019;43.780;25.948;2023-01-19T03:23:26;63.03;;;57.08;;
45274;SDS011;31019;43.780;25.948;2023-01-19T03:25:56;69.88;;;63.88;;
45274;SDS011;31019;43.780;25.948;2023-01-19T03:28:27;74.07;;;68.30;;
45274;SDS011;31019;43.780;25.948;2023-01-19T03:30:57;69.68;;;62.88;;
45274;SDS011;31019;43.780;25.948;2023-01-19T03:33:28;64.70;;;58.92;;
45274;SDS011;31019;43.780;25.948;2023-01-19T03:35:58;69.13;;;63.33;;
45274;SDS011;31019;43.780;25.948;2023-01-19T03:38:30;68.40;;;62.10;;
45274;SDS011;31019;43.780;25.948;2023-01-19T03:41:01;65.15;;;59.55;;
45274;SDS011;31019;43.780;25.948;2023-01-19T03:43:31;66.50;;;61.08;;
45274;SDS011;31019;43.780;25.948;2023-01-19T03:46:00;62.05;;;56.20;;
45274;SDS011;31019;43.780;25.948;2023-01-19T03:48:28;64.13;;;57.90;;
45274;SDS011;31019;43.780;25.948;2023-01-19T03:50:56;66.53;;;60.92;;
45274;SDS011;31019;43.780;25.948;2023-01-19T03:53:23;65.30;;;59.55;;
45274;SDS011;31019;43.780;25.948;2023-01-19T03:55:50;56.75;;;51.78;;
45274;SDS011;31019;43.780;25.948;2023-01-19T03:58:18;59.75;;;54.85;;
45274;SDS011;31019;43.780;25.948;2023-01-19T04:00:47;63.25;;;56.88;;
45274;SDS011;31019;43.780;25.948;2023-01-19T04:03:14;56.50;;;51.83;;
45274;SDS011;31019;43.780;25.948;2023-01-19T04:05:42;64.70;;;58.80;;
45274;SDS011;31019;43.780;25.948;2023-01-19T04:08:09;60.20;;;53.80;;
45274;SDS011;31019;43.780;25.948;2023-01-19T04:10:37;62.30;;;55.75;;
45274;SDS011;31019;43.780;25.948;2023-01-19T04:13:04;57.85;;;51.38;;
45274;SDS011;31019;43.780;25.948;2023-01-19T04:15:31;56.92;;;51.40;;
45274;SDS011;31019;43.780;25.948;2023-01-19T04:17:59;60.55;;;55.28;;
45274;SDS011;31019;43.780;25.948;2023-01-19T04:20:26;60.08;;;54.47;;
45274;SDS011;31019;43.780;25.948;2023-01-19T04:22:53;62.97;;;56.90;;
45274;SDS011;31019;43.780;25.948;2023-01-19T04:25:23;60.22;;;54.22;;
45274;SDS011;31019;43.780;25.948;2023-01-19T04:27:50;58.55;;;53.15;;
45274;SDS011;31019;43.780;25.948;2023-01-19T04:30:18;65.40;;;59.55;;
45274;SDS011;31019;43.780;25.948;2023-01-19T04:32:45;67.50;;;61.17;;
45274;SDS011;31019;43.780;25.948;2023-01-19T04:35:13;63.67;;;57.75;;
45274;SDS011;31019;43.780;25.948;2023-01-19T04:37:41;65.20;;;59.85;;
45274;SDS011;31019;43.780;25.948;2023-01-19T04:40:09;81.57;;;73.70;;
45274;SDS011;31019;43.780;25.948;2023-01-19T04:42:37;76.88;;;69.25;;
45274;SDS011;31019;43.780;25.948;2023-01-19T04:45:03;80.68;;;73.35;;
45274;SDS011;31019;43.780;25.948;2023-01-19T04:47:31;77.68;;;70.85;;
45274;SDS011;31019;43.780;25.948;2023-01-19T04:49:57;78.60;;;71.28;;
45274;SDS011;31019;43.780;25.948;2023-01-19T04:52:25;72.55;;;66.20;;
45274;SDS011;31019;43.780;25.948;2023-01-19T04:54:59;79.75;;;71.38;;
45274;SDS011;31019;43.780;25.948;2023-01-19T04:57:25;75.43;;;68.72;;
45274;SDS011;31019;43.780;25.948;2023-01-19T04:59:52;62.97;;;57.40;;
45274;SDS011;31019;43.780;25.948;2023-01-19T05:02:21;59.55;;;54.05;;
45274;SDS011;31019;43.780;25.948;2023-01-19T05:04:48;58.40;;;52.67;;
45274;SDS011;31019;43.780;25.948;2023-01-19T05:07:15;63.45;;;57.55;;
45274;SDS011;31019;43.780;25.948;2023-01-19T05:09:43;59.20;;;54.22;;
45274;SDS011;31019;43.780;25.948;2023-01-19T05:12:10;62.47;;;55.75;;
45274;SDS011;31019;43.780;25.948;2023-01-19T05:14:36;62.13;;;55.72;;
45274;SDS011;31019;43.780;25.948;2023-01-19T05:17:03;58.45;;;52.95;;
45274;SDS011;31019;43.780;25.948;2023-01-19T05:19:30;61.45;;;55.90;;
45274;SDS011;31019;43.780;25.948;2023-01-19T05:21:57;61.95;;;56.30;;
45274;SDS011;31019;43.780;25.948;2023-01-19T05:24:23;60.75;;;55.17;;
45274;SDS011;31019;43.780;25.948;2023-01-19T05:26:51;60.40;;;53.53;;
45274;SDS011;31019;43.780;25.948;2023-01-19T05:29:18;65.20;;;58.97;;
45274;SDS011;31019;43.780;25.948;2023-01-19T05:31:45;65.35;;;59.25;;
45274;SDS011;31019;43.780;25.948;2023-01-19T05:34:12;60.90;;;54.33;;
45274;SDS011;31019;43.780;25.948;2023-01-19T05:36:39;65.90;;;59.20;;
45274;SDS011;31019;43.780;25.948;2023-01-19T05:39:06;63.17;;;57.40;;
45274;SDS011;31019;43.780;25.948;2023-01-19T05:41:33;60.35;;;54.45;;
45274;SDS011;31019;43.780;25.948;2023-01-19T05:44:02;62.97;;;56.15;;
45274;SDS011;31019;43.780;25.948;2023-01-19T05:46:28;57.70;;;52.63;;
45274;SDS011;31019;43.780;25.948;2023-01-19T05:48:55;58.65;;;52.50;;
45274;SDS011;31019;43.780;25.948;2023-01-19T05:51:22;56.22;;;50.03;;
45274;SDS011;31019;43.780;25.948;2023-01-19T05:53:49;55.92;;;50.20;;
45274;SDS011;31019;43.780;25.948;2023-01-19T05:56:16;55.42;;;50.10;;
45274;SDS011;31019;43.780;25.948;2023-01-19T05:58:43;54.35;;;48.60;;
45274;SDS011;31019;43.780;25.948;2023-01-19T06:01:11;55.13;;;50.17;;
45274;SDS011;31019;43.780;25.948;2023-01-19T06:03:37;55.80;;;49.95;;
45274;SDS011;31019;43.780;25.948;2023-01-19T06:06:05;60.47;;;54.22;;
45274;SDS011;31019;43.780;25.948;2023-01-19T06:08:32;60.70;;;54.22;;
45274;SDS011;31019;43.780;25.948;2023-01-19T06:10:59;56.92;;;51.28;;
45274;SDS011;31019;43.780;25.948;2023-01-19T06:13:26;56.65;;;51.42;;
45274;SDS011;31019;43.780;25.948;2023-01-19T06:15:56;57.28;;;50.58;;
45274;SDS011;31019;43.780;25.948;2023-01-19T06:18:25;56.80;;;51.35;;
45274;SDS011;31019;43.780;25.948;2023-01-19T06:20:52;56.35;;;50.55;;
45274;SDS011;31019;43.780;25.948;2023-01-19T06:23:22;62.28;;;54.40;;
45274;SDS011;31019;43.780;25.948;2023-01-19T06:25:49;61.28;;;53.58;;
45274;SDS011;31019;43.780;25.948;2023-01-19T06:28:16;58.85;;;51.50;;
45274;SDS011;31019;43.780;25.948;2023-01-19T06:30:46;55.88;;;50.20;;
45274;SDS011;31019;43.780;25.948;2023-01-19T06:33:14;57.63;;;49.92;;
45274;SDS011;31019;43.780;25.948;2023-01-19T06:35:43;57.95;;;51.63;;
45274;SDS011;31019;43.780;25.948;2023-01-19T06:38:10;65.85;;;51.55;;
45274;SDS011;31019;43.780;25.948;2023-01-19T06:40:37;55.38;;;49.97;;
45274;SDS011;31019;43.780;25.948;2023-01-19T06:43:04;54.65;;;48.65;;
45274;SDS011;31019;43.780;25.948;2023-01-19T06:45:31;56.75;;;49.55;;
45274;SDS011;31019;43.780;25.948;2023-01-19T06:47:58;53.17;;;47.45;;
45274;SDS011;31019;43.780;25.948;2023-01-19T06:50:25;53.65;;;48.10;;
45274;SDS011;31019;43.780;25.948;2023-01-19T06:52:53;59.65;;;51.00;;
45274;SDS011;31019;43.780;25.948;2023-01-19T06:55:20;54.85;;;48.33;;
45274;SDS011;31019;43.780;25.948;2023-01-19T06:57:47;56.67;;;50.40;;
45274;SDS011;31019;43.780;25.948;2023-01-19T07:00:14;57.78;;;51.42;;
45274;SDS011;31019;43.780;25.948;2023-01-19T07:02:41;53.80;;;48.35;;
45274;SDS011;31019;43.780;25.948;2023-01-19T07:05:08;55.05;;;49.08;;
45274;SDS011;31019;43.780;25.948;2023-01-19T07:07:35;57.72;;;50.58;;
45274;SDS011;31019;43.780;25.948;2023-01-19T07:10:05;58.90;;;50.05;;
45274;SDS011;31019;43.780;25.948;2023-01-19T07:12:34;54.33;;;48.70;;
45274;SDS011;31019;43.780;25.948;2023-01-19T07:15:01;59.80;;;48.28;;
45274;SDS011;31019;43.780;25.948;2023-01-19T07:17:27;55.13;;;49.25;;
45274;SDS011;31019;43.780;25.948;2023-01-19T07:19:54;55.65;;;49.97;;
45274;SDS011;31019;43.780;25.948;2023-01-19T07:22:21;62.30;;;49.70;;
45274;SDS011;31019;43.780;25.948;2023-01-19T07:24:47;54.78;;;47.70;;
45274;SDS011;31019;43.780;25.948;2023-01-19T07:27:16;53.88;;;48.53;;
45274;SDS011;31019;43.780;25.948;2023-01-19T07:29:42;53.90;;;48.20;;
45274;SDS011;31019;43.780;25.948;2023-01-19T07:32:09;52.70;;;47.35;;
45274;SDS011;31019;43.780;25.948;2023-01-19T07:34:36;54.90;;;48.47;;
45274;SDS011;31019;43.780;25.948;2023-01-19T07:37:02;53.10;;;47.38;;
45274;SDS011;31019;43.780;25.948;2023-01-19T07:39:31;51.67;;;46.47;;
45274;SDS011;31019;43.780;25.948;2023-01-19T07:42:00;52.67;;;47.50;;
45274;SDS011;31019;43.780;25.948;2023-01-19T07:44:31;53.55;;;47.47;;
45274;SDS011;31019;43.780;25.948;2023-01-19T07:46:58;60.83;;;47.30;;
45274;SDS011;31019;43.780;25.948;2023-01-19T07:49:24;52.45;;;47.60;;
45274;SDS011;31019;43.780;25.948;2023-01-19T07:51:51;53.33;;;48.03;;
45274;SDS011;31019;43.780;25.948;2023-01-19T07:54:20;55.05;;;49.33;;
45274;SDS011;31019;43.780;25.948;2023-01-19T07:56:47;56.67;;;49.22;;
45274;SDS011;31019;43.780;25.948;2023-01-19T07:59:13;54.60;;;49.08;;
45274;SDS011;31019;43.780;25.948;2023-01-19T08:01:41;53.65;;;48.67;;
45274;SDS011;31019;43.780;25.948;2023-01-19T08:04:08;55.78;;;50.15;;
45274;SDS011;31019;43.780;25.948;2023-01-19T08:06:36;55.85;;;49.97;;
45274;SDS011;31019;43.780;25.948;2023-01-19T08:09:04;64.93;;;49.03;;
45274;SDS011;31019;43.780;25.948;2023-01-19T08:11:31;54.75;;;49.08;;
45274;SDS011;31019;43.780;25.948;2023-01-19T08:13:58;57.25;;;51.58;;
45274;SDS011;31019;43.780;25.948;2023-01-19T08:16:25;60.65;;;48.28;;
45274;SDS011;31019;43.780;25.948;2023-01-19T08:18:54;59.35;;;50.92;;
45274;SDS011;31019;43.780;25.948;2023-01-19T08:21:21;59.53;;;51.58;;
45274;SDS011;31019;43.780;25.948;2023-01-19T08:23:50;56.30;;;50.40;;
45274;SDS011;31019;43.780;25.948;2023-01-19T08:26:18;54.60;;;48.35;;
45274;SDS011;31019;43.780;25.948;2023-01-19T08:28:48;55.90;;;49.45;;
45274;SDS011;31019;43.780;25.948;2023-01-19T08:31:14;54.03;;;48.92;;
45274;SDS011;31019;43.780;25.948;2023-01-19T08:33:41;55.30;;;49.33;;
45274;SDS011;31019;43.780;25.948;2023-01-19T08:36:09;56.83;;;51.25;;
45274;SDS011;31019;43.780;25.948;2023-01-19T08:38:36;57.15;;;51.95;;
45274;SDS011;31019;43.780;25.948;2023-01-19T08:41:08;58.25;;;52.50;;
45274;SDS011;31019;43.780;25.948;2023-01-19T08:43:35;57.33;;;51.05;;
45274;SDS011;31019;43.780;25.948;2023-01-19T08:46:02;55.03;;;50.08;;
45274;SDS011;31019;43.780;25.948;2023-01-19T08:48:29;53.83;;;48.78;;
45274;SDS011;31019;43.780;25.948;2023-01-19T08:50:56;56.50;;;51.00;;
45274;SDS011;31019;43.780;25.948;2023-01-19T08:53:25;57.95;;;52.05;;
45274;SDS011;31019;43.780;25.948;2023-01-19T08:55:53;58.00;;;52.10;;
45274;SDS011;31019;43.780;25.948;2023-01-19T08:58:21;57.72;;;52.10;;
45274;SDS011;31019;43.780;25.948;2023-01-19T09:00:48;57.75;;;52.25;;
45274;SDS011;31019;43.780;25.948;2023-01-19T09:03:16;61.70;;;55.13;;
45274;SDS011;31019;43.780;25.948;2023-01-19T09:05:44;58.33;;;52.05;;
45274;SDS011;31019;43.780;25.948;2023-01-19T09:08:12;56.78;;;50.58;;
45274;SDS011;31019;43.780;25.948;2023-01-19T09:10:44;58.00;;;51.22;;
45274;SDS011;31019;43.780;25.948;2023-01-19T09:13:12;58.13;;;51.78;;
45274;SDS011;31019;43.780;25.948;2023-01-19T09:15:39;60.00;;;51.90;;
45274;SDS011;31019;43.780;25.948;2023-01-19T09:18:08;60.13;;;52.60;;
45274;SDS011;31019;43.780;25.948;2023-01-19T09:20:37;58.50;;;52.58;;
45274;SDS011;31019;43.780;25.948;2023-01-19T09:23:06;58.33;;;52.38;;
45274;SDS011;31019;43.780;25.948;2023-01-19T09:25:34;57.35;;;51.35;;
45274;SDS011;31019;43.780;25.948;2023-01-19T09:28:03;62.75;;;54.60;;
45274;SDS011;31019;43.780;25.948;2023-01-19T09:30:30;60.28;;;54.17;;
45274;SDS011;31019;43.780;25.948;2023-01-19T09:33:00;61.80;;;55.58;;
45274;SDS011;31019;43.780;25.948;2023-01-19T09:35:28;60.65;;;54.22;;
45274;SDS011;31019;43.780;25.948;2023-01-19T09:37:56;64.82;;;55.47;;
45274;SDS011;31019;43.780;25.948;2023-01-19T09:40:22;67.70;;;53.60;;
45274;SDS011;31019;43.780;25.948;2023-01-19T09:42:51;66.00;;;54.25;;
45274;SDS011;31019;43.780;25.948;2023-01-19T09:45:25;62.20;;;52.20;;
45274;SDS011;31019;43.780;25.948;2023-01-19T09:47:57;58.47;;;52.50;;
45274;SDS011;31019;43.780;25.948;2023-01-19T09:50:26;64.47;;;53.53;;
45274;SDS011;31019;43.780;25.948;2023-01-19T09:52:57;60.63;;;54.47;;
45274;SDS011;31019;43.780;25.948;2023-01-19T09:55:31;60.70;;;54.55;;
45274;SDS011;31019;43.780;25.948;2023-01-19T09:57:59;68.18;;;57.42;;
45274;SDS011;31019;43.780;25.948;2023-01-19T10:00:27;62.22;;;54.13;;
45274;SDS011;31019;43.780;25.948;2023-01-19T10:02:57;63.63;;;54.53;;
45274;SDS011;31019;43.780;25.948;2023-01-19T10:05:32;62.85;;;55.65;;
45274;SDS011;31019;43.780;25.948;2023-01-19T10:08:07;64.70;;;53.90;;
45274;SDS011;31019;43.780;25.948;2023-01-19T10:10:44;62.28;;;55.35;;
45274;SDS011;31019;43.780;25.948;2023-01-19T10:13:31;58.50;;;52.10;;
45274;SDS011;31019;43.780;25.948;2023-01-19T10:16:08;56.65;;;51.47;;
45274;SDS011;31019;43.780;25.948;2023-01-19T10:18:51;59.45;;;53.47;;
45274;SDS011;31019;43.780;25.948;2023-01-19T10:21:23;60.08;;;53.55;;
45274;SDS011;31019;43.780;25.948;2023-01-19T10:23:56;61.10;;;54.22;;
45274;SDS011;31019;43.780;25.948;2023-01-19T10:26:30;59.03;;;53.40;;
45274;SDS011;31019;43.780;25.948;2023-01-19T10:29:01;61.70;;;54.60;;
45274;SDS011;31019;43.780;25.948;2023-01-19T10:31:31;59.78;;;53.40;;
45274;SDS011;31019;43.780;25.948;2023-01-19T10:34:00;63.78;;;56.45;;
45274;SDS011;31019;43.780;25.948;2023-01-19T10:36:32;61.95;;;55.35;;
45274;SDS011;31019;43.780;25.948;2023-01-19T10:41:30;59.55;;;53.70;;
45274;SDS011;31019;43.780;25.948;2023-01-19T10:44:05;64.18;;;57.17;;
45274;SDS011;31019;43.780;25.948;2023-01-19T10:46:37;58.88;;;53.67;;
45274;SDS011;31019;43.780;25.948;2023-01-19T10:49:20;60.08;;;53.30;;
45274;SDS011;31019;43.780;25.948;2023-01-19T10:51:50;61.63;;;55.47;;
45274;SDS011;31019;43.780;25.948;2023-01-19T10:54:17;62.92;;;55.90;;
45274;SDS011;31019;43.780;25.948;2023-01-19T10:56:49;61.20;;;55.40;;
45274;SDS011;31019;43.780;25.948;2023-01-19T10:59:29;61.17;;;55.00;;
45274;SDS011;31019;43.780;25.948;2023-01-19T11:02:10;59.40;;;53.30;;
45274;SDS011;31019;43.780;25.948;2023-01-19T11:04:42;59.55;;;53.40;;
45274;SDS011;31019;43.780;25.948;2023-01-19T11:07:14;73.90;;;66.13;;
45274;SDS011;31019;43.780;25.948;2023-01-19T11:09:44;61.35;;;55.17;;
45274;SDS011;31019;43.780;25.948;2023-01-19T11:12:14;64.32;;;53.50;;
45274;SDS011;31019;43.780;25.948;2023-01-19T11:14:43;58.42;;;52.70;;
45274;SDS011;31019;43.780;25.948;2023-01-19T11:17:17;59.67;;;54.20;;
45274;SDS011;31019;43.780;25.948;2023-01-19T11:19:51;61.97;;;55.75;;
45274;SDS011;31019;43.780;25.948;2023-01-19T11:22:20;62.35;;;56.05;;
45274;SDS011;31019;43.780;25.948;2023-01-19T11:24:52;59.97;;;54.72;;
45274;SDS011;31019;43.780;25.948;2023-01-19T11:27:23;64.50;;;58.92;;
45274;SDS011;31019;43.780;25.948;2023-01-19T11:29:52;60.05;;;54.17;;
45274;SDS011;31019;43.780;25.948;2023-01-19T11:32:27;63.00;;;56.25;;
45274;SDS011;31019;43.780;25.948;2023-01-19T11:34:53;60.40;;;54.80;;
45274;SDS011;31019;43.780;25.948;2023-01-19T11:37:24;61.20;;;55.50;;
45274;SDS011;31019;43.780;25.948;2023-01-19T11:39:54;58.97;;;53.25;;
45274;SDS011;31019;43.780;25.948;2023-01-19T11:42:22;59.85;;;54.20;;
45274;SDS011;31019;43.780;25.948;2023-01-19T11:44:54;60.95;;;55.25;;
45274;SDS011;31019;43.780;25.948;2023-01-19T11:47:24;59.55;;;53.90;;
45274;SDS011;31019;43.780;25.948;2023-01-19T11:49:57;60.70;;;54.13;;
45274;SDS011;31019;43.780;25.948;2023-01-19T11:52:27;60.00;;;54.30;;
45274;SDS011;31019;43.780;25.948;2023-01-19T11:54:59;62.60;;;57.10;;
45274;SDS011;31019;43.780;25.948;2023-01-19T11:59:58;60.10;;;54.13;;
45274;SDS011;31019;43.780;25.948;2023-01-19T12:02:31;60.58;;;54.63;;
45274;SDS011;31019;43.780;25.948;2023-01-19T12:05:11;63.42;;;57.47;;
45274;SDS011;31019;43.780;25.948;2023-01-19T12:07:40;63.20;;;57.88;;
45274;SDS011;31019;43.780;25.948;2023-01-19T12:10:13;62.90;;;56.90;;
45274;SDS011;31019;43.780;25.948;2023-01-19T12:12:46;62.55;;;56.97;;
45274;SDS011;31019;43.780;25.948;2023-01-19T12:15:15;64.55;;;59.08;;
45274;SDS011;31019;43.780;25.948;2023-01-19T12:17:50;59.67;;;54.08;;
45274;SDS011;31019;43.780;25.948;2023-01-19T12:20:25;59.45;;;53.70;;
45274;SDS011;31019;43.780;25.948;2023-01-19T12:22:58;57.97;;;52.78;;
45274;SDS011;31019;43.780;25.948;2023-01-19T12:25:36;59.58;;;54.25;;
45274;SDS011;31019;43.780;25.948;2023-01-19T12:28:11;60.42;;;55.05;;
45274;SDS011;31019;43.780;25.948;2023-01-19T12:30:40;61.25;;;55.10;;
45274;SDS011;31019;43.780;25.948;2023-01-19T12:33:21;60.30;;;54.83;;
45274;SDS011;31019;43.780;25.948;2023-01-19T12:35:58;61.83;;;56.28;;
45274;SDS011;31019;43.780;25.948;2023-01-19T12:41:25;62.92;;;57.47;;
45274;SDS011;31019;43.780;25.948;2023-01-19T12:46:53;60.95;;;55.45;;
45274;SDS011;31019;43.780;25.948;2023-01-19T12:49:29;62.40;;;57.13;;
45274;SDS011;31019;43.780;25.948;2023-01-19T12:52:09;58.88;;;53.78;;
45274;SDS011;31019;43.780;25.948;2023-01-19T12:54:39;57.72;;;52.10;;
45274;SDS011;31019;43.780;25.948;2023-01-19T12:57:15;56.70;;;51.75;;
45274;SDS011;31019;43.780;25.948;2023-01-19T12:59:46;57.20;;;52.05;;
45274;SDS011;31019;43.780;25.948;2023-01-19T13:05:18;56.42;;;51.63;;
45274;SDS011;31019;43.780;25.948;2023-01-19T13:11:11;57.33;;;52.13;;
45274;SDS011;31019;43.780;25.948;2023-01-19T13:13:40;57.85;;;52.90;;
45274;SDS011;31019;43.780;25.948;2023-01-19T13:19:16;55.30;;;50.75;;
45274;SDS011;31019;43.780;25.948;2023-01-19T13:21:48;56.80;;;51.97;;
45274;SDS011;31019;43.780;25.948;2023-01-19T13:24:16;60.25;;;55.63;;
45274;SDS011;31019;43.780;25.948;2023-01-19T13:26:53;61.45;;;56.35;;
45274;SDS011;31019;43.780;25.948;2023-01-19T13:29:24;57.22;;;52.63;;
45274;SDS011;31019;43.780;25.948;2023-01-19T13:31:55;57.20;;;52.80;;
45274;SDS011;31019;43.780;25.948;2023-01-19T13:34:27;56.97;;;51.50;;
45274;SDS011;31019;43.780;25.948;2023-01-19T13:36:57;57.45;;;52.45;;
45274;SDS011;31019;43.780;25.948;2023-01-19T13:39:26;55.88;;;50.97;;
45274;SDS011;31019;43.780;25.948;2023-01-19T13:41:55;56.65;;;51.30;;
45274;SDS011;31019;43.780;25.948;2023-01-19T13:44:26;55.50;;;50.75;;
45274;SDS011;31019;43.780;25.948;2023-01-19T13:46:55;53.22;;;48.72;;
45274;SDS011;31019;43.780;25.948;2023-01-19T13:49:25;53.95;;;49.75;;
45274;SDS011;31019;43.780;25.948;2023-01-19T13:52:06;58.55;;;53.95;;
45274;SDS011;31019;43.780;25.948;2023-01-19T13:54:36;62.78;;;57.22;;
45274;SDS011;31019;43.780;25.948;2023-01-19T13:57:20;61.47;;;56.65;;
45274;SDS011;31019;43.780;25.948;2023-01-19T13:59:59;53.70;;;49.22;;
45274;SDS011;31019;43.780;25.948;2023-01-19T14:02:27;53.80;;;49.13;;
45274;SDS011;31019;43.780;25.948;2023-01-19T14:04:53;58.15;;;52.95;;
45274;SDS011;31019;43.780;25.948;2023-01-19T14:07:22;57.83;;;52.92;;
45274;SDS011;31019;43.780;25.948;2023-01-19T14:10:00;53.50;;;48.83;;
45274;SDS011;31019;43.780;25.948;2023-01-19T14:12:27;55.10;;;50.58;;
45274;SDS011;31019;43.780;25.948;2023-01-19T14:14:53;55.13;;;50.33;;
45274;SDS011;31019;43.780;25.948;2023-01-19T14:17:21;54.55;;;49.80;;
45274;SDS011;31019;43.780;25.948;2023-01-19T14:19:50;55.67;;;50.40;;
45274;SDS011;31019;43.780;25.948;2023-01-19T14:22:18;54.00;;;49.30;;
45274;SDS011;31019;43.780;25.948;2023-01-19T14:24:46;146.48;;;77.10;;
45274;SDS011;31019;43.780;25.948;2023-01-19T14:27:17;111.22;;;67.60;;
45274;SDS011;31019;43.780;25.948;2023-01-19T14:29:46;58.80;;;53.20;;
45274;SDS011;31019;43.780;25.948;2023-01-19T14:32:15;139.80;;;83.10;;
45274;SDS011;31019;43.780;25.948;2023-01-19T14:34:44;55.47;;;50.58;;
45274;SDS011;31019;43.780;25.948;2023-01-19T14:37:22;53.97;;;49.00;;
45274;SDS011;31019;43.780;25.948;2023-01-19T14:39:53;54.33;;;49.67;;
45274;SDS011;31019;43.780;25.948;2023-01-19T14:42:24;55.33;;;49.65;;
45274;SDS011;31019;43.780;25.948;2023-01-19T14:44:54;55.75;;;51.08;;